Garden City Regional Airport
KGCK : now visible

Airfield :











YOU CAN JOIN US ON...

 
LOGIN :

Register | Disclaimer

   EN    FR    IT 

 









Legend :    VFR   Marginal VFR   IFR   Intensive IFR   Very Intensive IFR
Visi :
Ceiling :
>= 8 km
>= 3000ft
5 to 8 km
1000 to 3000 ft
1500m to 5 km
500 to 1000 ft
800 to 1500m
200 to 500 ft
< 800m
< 200 ft
Symbols :   Thunderstorms  Fog  Heavy snow  Heavy precipitations  Wind > 20 kt






- Airport Elevation : 2891 ft
- IATA code : GCK


KGCK - Garden City Regional

CURRENT METAR :
  • 041554Z VRB04KT 10SM CLR 03/M04 A3014 RMK AO2 SLP224 T00331044

EXPIRED METARs :
  • 041454Z VRB03KT 10SM CLR 00/M04 A3015 RMK AO2 SLP230 T00001044 53001
  • 041354Z 14003KT 10SM OVC070 M02/M05 A3016 RMK AO2 SLP232 T10221050

TAF KGCK
Valid from the 04 at 12:00 until the 05 at 12:00 UTC


041120Z 0412/0512 11006KT P6SM SCT090
FM041900 13011KT P6SM FEW250



MET'MAP, your aeronautical weather chart ! - Copyright ORBIFLY December 2007 - Disclaimer

ORBIFLY MET'MAP TEAM :

Programming & Development : Alexandra Zaïnal
Concept & original design : Baudouin d'Aumeries
Assistance for programming : Marc-Olivier Méhu
Technical & hardware support : Manuel Goepfert

Contact : metmap@orbifly.com




SOURCES & CREDITS :

   NOAA       Earth
Advisory